createdAt,value
2023-01-19T00:00:55.796Z,59.37
2023-01-19T00:03:22.844Z,58.90
2023-01-19T00:05:50.188Z,60.10
2023-01-19T00:08:18.836Z,58.33
2023-01-19T00:10:48.956Z,58.60
2023-01-19T00:13:16.528Z,58.77
2023-01-19T00:15:44.261Z,59.27
2023-01-19T00:18:11.600Z,58.20
2023-01-19T00:20:40.238Z,58.90
2023-01-19T00:23:08.252Z,58.63
2023-01-19T00:25:42.359Z,58.17
2023-01-19T00:28:15.524Z,59.00
2023-01-19T00:30:44.294Z,59.77
2023-01-19T00:33:15.383Z,58.13
2023-01-19T00:35:43.306Z,60.17
2023-01-19T00:38:12.369Z,58.43
2023-01-19T00:40:39.661Z,59.50
2023-01-19T00:43:06.863Z,59.33
2023-01-19T00:45:34.398Z,59.10
2023-01-19T00:48:01.989Z,59.60
2023-01-19T00:50:30.848Z,59.67
2023-01-19T00:53:01.474Z,58.70
2023-01-19T00:55:30.238Z,59.77
2023-01-19T00:57:58.032Z,62.93
2023-01-19T01:00:25.756Z,61.90
2023-01-19T01:02:53.546Z,62.23
2023-01-19T01:05:21.077Z,60.97
2023-01-19T01:07:49.568Z,60.00
2023-01-19T01:10:24.217Z,60.73
2023-01-19T01:12:55.645Z,72.20
2023-01-19T01:15:27.065Z,80.97
2023-01-19T01:17:54.800Z,91.47
2023-01-19T01:20:27.943Z,84.40
2023-01-19T01:22:56.968Z,64.50
2023-01-19T01:25:26.175Z,63.40
2023-01-19T01:27:54.422Z,61.27
2023-01-19T01:30:22.095Z,60.53
2023-01-19T01:32:49.570Z,60.07
2023-01-19T01:35:17.433Z,60.27
2023-01-19T01:37:44.850Z,59.23
2023-01-19T01:40:14.982Z,58.53
2023-01-19T01:42:42.915Z,59.63
2023-01-19T01:45:34.548Z,61.50
2023-01-19T01:48:10.572Z,60.17
2023-01-19T01:51:08.169Z,64.53
2023-01-19T01:53:37.439Z,63.50
2023-01-19T01:56:11.353Z,67.77
2023-01-19T01:58:39.565Z,63.03
2023-01-19T02:01:26.519Z,60.43
2023-01-19T02:03:57.614Z,59.87
2023-01-19T02:06:24.884Z,62.23
2023-01-19T02:09:21.347Z,63.33
2023-01-19T02:12:07.689Z,63.10
2023-01-19T02:14:38.967Z,61.90
2023-01-19T02:17:07.257Z,59.83
2023-01-19T02:19:43.018Z,62.43
2023-01-19T02:22:35.835Z,62.00
2023-01-19T02:25:04.986Z,61.00
2023-01-19T02:27:33.200Z,61.83
2023-01-19T02:30:03.745Z,60.77
2023-01-19T02:32:31.029Z,59.90
2023-01-19T02:34:58.390Z,58.33
2023-01-19T02:37:28.735Z,61.27
2023-01-19T02:39:59.211Z,60.33
2023-01-19T02:42:32.660Z,59.60
2023-01-19T02:45:00.043Z,59.43
2023-01-19T02:47:27.229Z,61.07
2023-01-19T02:49:59.035Z,60.80
2023-01-19T02:52:27.920Z,59.70
2023-01-19T02:55:18.312Z,59.13
2023-01-19T02:58:59.903Z,59.90
2023-01-19T03:01:41.364Z,60.30
2023-01-19T03:04:33.698Z,60.30
2023-01-19T03:07:22.497Z,58.57
2023-01-19T03:10:00.081Z,61.20
2023-01-19T03:13:03.505Z,61.63
2023-01-19T03:15:43.625Z,62.27
2023-01-19T03:18:12.972Z,60.83
2023-01-19T03:20:40.605Z,60.43
2023-01-19T03:23:12.818Z,58.63
2023-01-19T03:25:44.495Z,59.70
2023-01-19T03:28:13.441Z,60.00
2023-01-19T03:30:46.783Z,59.10
2023-01-19T03:33:37.645Z,60.57
2023-01-19T03:36:21.743Z,61.50
2023-01-19T03:38:50.433Z,59.50
2023-01-19T03:41:22.134Z,59.60
2023-01-19T03:43:51.999Z,59.47
2023-01-19T03:46:20.784Z,60.50
2023-01-19T03:48:48.588Z,61.67
2023-01-19T03:51:17.504Z,59.53
2023-01-19T03:53:44.577Z,60.90
2023-01-19T03:56:24.859Z,60.37
2023-01-19T03:58:52.521Z,60.50
2023-01-19T04:01:23.504Z,61.10
2023-01-19T04:03:51.340Z,61.40
2023-01-19T04:06:20.312Z,58.83
2023-01-19T04:08:51.911Z,58.33
2023-01-19T04:11:18.963Z,58.67
2023-01-19T04:13:46.025Z,57.50
2023-01-19T04:16:13.253Z,58.63
2023-01-19T04:18:42.313Z,57.57
2023-01-19T04:21:09.449Z,56.80
2023-01-19T04:23:36.827Z,58.20
2023-01-19T04:26:07.500Z,57.17
2023-01-19T04:28:39.577Z,56.87
2023-01-19T04:31:07.253Z,56.50
2023-01-19T04:33:35.047Z,56.43
2023-01-19T04:36:02.416Z,57.50
2023-01-19T04:38:29.956Z,56.67
2023-01-19T04:40:57.029Z,56.60
2023-01-19T04:43:24.499Z,56.17
2023-01-19T04:45:51.892Z,57.87
2023-01-19T04:48:19.623Z,59.50
2023-01-19T04:50:47.317Z,59.30
2023-01-19T04:53:16.280Z,59.53
2023-01-19T04:55:43.440Z,58.37
2023-01-19T04:58:10.868Z,59.20
2023-01-19T05:00:38.323Z,59.67
2023-01-19T05:03:05.715Z,60.77
2023-01-19T05:05:33.239Z,59.37
2023-01-19T05:08:00.816Z,59.20
2023-01-19T05:10:28.061Z,58.87
2023-01-19T05:12:55.704Z,60.77
2023-01-19T05:15:22.939Z,60.73
2023-01-19T05:17:50.099Z,60.20
2023-01-19T05:20:17.550Z,61.30
2023-01-19T05:22:50.839Z,59.53
2023-01-19T05:25:18.198Z,59.87
2023-01-19T05:27:45.950Z,60.07
2023-01-19T05:30:13.977Z,60.30
2023-01-19T05:32:41.372Z,61.57
2023-01-19T05:35:09.821Z,62.57
2023-01-19T05:37:37.075Z,62.53
2023-01-19T05:40:05.132Z,60.37
2023-01-19T05:42:33.010Z,58.83
2023-01-19T05:45:00.669Z,60.60
2023-01-19T05:47:30.420Z,58.47
2023-01-19T05:49:58.019Z,59.63
2023-01-19T05:52:25.191Z,59.37
2023-01-19T05:54:52.336Z,61.10
2023-01-19T05:57:19.373Z,59.50
2023-01-19T05:59:46.479Z,60.70
2023-01-19T06:02:13.644Z,60.37
2023-01-19T06:04:40.771Z,58.07
2023-01-19T06:07:07.786Z,57.87
2023-01-19T06:09:35.221Z,57.17
2023-01-19T06:12:02.249Z,59.43
2023-01-19T06:14:29.694Z,57.37
2023-01-19T06:16:56.721Z,56.97
2023-01-19T06:19:24.180Z,58.00
2023-01-19T06:21:52.442Z,57.27
2023-01-19T06:24:19.870Z,56.27
2023-01-19T06:26:47.013Z,58.77
2023-01-19T06:29:14.662Z,57.77
2023-01-19T06:31:42.077Z,58.63
2023-01-19T06:34:10.192Z,68.03
2023-01-19T06:36:37.353Z,59.60
2023-01-19T06:39:06.084Z,67.67
2023-01-19T06:41:34.039Z,63.87
2023-01-19T06:44:02.107Z,62.23
2023-01-19T06:46:29.729Z,61.93
2023-01-19T06:48:57.259Z,58.93
2023-01-19T06:51:25.551Z,58.53
2023-01-19T06:53:52.726Z,58.60
2023-01-19T06:56:19.817Z,61.43
2023-01-19T06:58:48.730Z,62.60
2023-01-19T07:01:16.184Z,60.33
2023-01-19T07:03:44.479Z,62.43
2023-01-19T07:06:12.592Z,66.67
2023-01-19T07:08:40.129Z,62.50
2023-01-19T07:11:26.724Z,60.87
2023-01-19T07:13:58.465Z,59.30
2023-01-19T07:16:26.210Z,59.67
2023-01-19T07:18:53.711Z,57.30
2023-01-19T07:21:21.730Z,59.77
2023-01-19T07:23:52.761Z,59.83
2023-01-19T07:26:21.649Z,58.47
2023-01-19T07:28:49.475Z,60.87
2023-01-19T07:31:18.022Z,59.53
2023-01-19T07:33:45.977Z,58.37
2023-01-19T07:36:13.666Z,58.83
2023-01-19T07:38:40.762Z,60.17
2023-01-19T07:41:09.873Z,60.80
2023-01-19T07:43:36.974Z,60.90
2023-01-19T07:46:06.391Z,62.57
2023-01-19T07:48:33.865Z,60.00
2023-01-19T07:51:06.392Z,75.80
2023-01-19T07:53:33.488Z,59.73
2023-01-19T07:56:00.747Z,58.80
2023-01-19T07:58:29.258Z,58.50
2023-01-19T08:00:56.453Z,56.73
2023-01-19T08:03:23.779Z,54.90
2023-01-19T08:05:52.911Z,55.83
2023-01-19T08:08:20.469Z,57.40
2023-01-19T08:10:51.096Z,57.80
2023-01-19T08:13:18.708Z,57.10
2023-01-19T08:15:49.685Z,56.83
2023-01-19T08:18:16.890Z,57.67
2023-01-19T08:20:44.040Z,57.47
2023-01-19T08:23:11.204Z,57.83
2023-01-19T08:25:45.289Z,56.73
2023-01-19T08:28:15.263Z,58.97
2023-01-19T08:30:44.869Z,58.83
2023-01-19T08:33:15.202Z,57.97
2023-01-19T08:35:44.350Z,57.53
2023-01-19T08:38:11.444Z,59.03
2023-01-19T08:40:42.045Z,72.60
2023-01-19T08:43:18.864Z,77.20
2023-01-19T08:45:52.119Z,69.10
2023-01-19T08:48:22.394Z,64.73
2023-01-19T08:50:52.015Z,57.93
2023-01-19T08:53:21.145Z,59.07
2023-01-19T08:55:48.277Z,58.33
2023-01-19T08:58:15.837Z,57.80
2023-01-19T09:00:42.869Z,59.23
2023-01-19T09:03:13.749Z,56.63
2023-01-19T09:05:40.972Z,56.00
2023-01-19T09:08:11.528Z,56.40
2023-01-19T09:10:40.115Z,56.20
2023-01-19T09:13:11.023Z,56.03
2023-01-19T09:15:39.790Z,56.27
2023-01-19T09:18:13.454Z,55.87
2023-01-19T09:20:46.051Z,56.20
2023-01-19T09:23:16.566Z,60.10
2023-01-19T09:25:46.288Z,57.00
2023-01-19T09:28:16.317Z,56.13
2023-01-19T09:30:44.479Z,56.57
2023-01-19T09:33:14.794Z,56.03
2023-01-19T09:35:42.910Z,55.23
2023-01-19T09:38:10.639Z,55.83
2023-01-19T09:40:43.908Z,57.30
2023-01-19T09:43:31.937Z,54.80
2023-01-19T09:46:12.758Z,56.07
2023-01-19T09:48:46.040Z,56.40
2023-01-19T09:51:34.748Z,57.20
2023-01-19T09:54:34.164Z,56.87
2023-01-19T09:57:01.497Z,57.80
2023-01-19T09:59:33.732Z,58.40
2023-01-19T10:02:21.890Z,56.70
2023-01-19T10:04:57.657Z,56.90
2023-01-19T10:08:17.079Z,55.07
2023-01-19T10:10:53.307Z,56.27
2023-01-19T10:13:43.659Z,55.70
2023-01-19T10:16:26.236Z,56.27
2023-01-19T10:19:17.272Z,54.97
2023-01-19T10:21:46.641Z,55.33
2023-01-19T10:24:41.845Z,56.53
2023-01-19T10:27:22.697Z,57.00
2023-01-19T10:29:50.273Z,55.93
2023-01-19T10:32:21.332Z,56.27
2023-01-19T10:34:50.775Z,56.10
2023-01-19T10:37:31.501Z,52.80
2023-01-19T10:40:15.892Z,53.53
2023-01-19T10:42:43.160Z,53.40
2023-01-19T10:45:22.345Z,53.07
2023-01-19T10:47:50.256Z,53.67
2023-01-19T10:50:32.774Z,53.90
2023-01-19T10:53:06.255Z,56.27
2023-01-19T10:55:40.201Z,54.10
2023-01-19T10:58:27.725Z,54.70
2023-01-19T11:00:54.856Z,54.90
2023-01-19T11:03:31.543Z,53.57
2023-01-19T11:06:29.239Z,53.43
2023-01-19T11:09:20.854Z,53.87
2023-01-19T11:11:51.745Z,54.63
2023-01-19T11:14:25.600Z,54.37
2023-01-19T11:16:55.656Z,54.73
2023-01-19T11:19:32.589Z,55.40
2023-01-19T11:22:26.967Z,53.77
2023-01-19T11:24:59.657Z,53.50
2023-01-19T11:27:27.848Z,55.33
2023-01-19T11:30:21.200Z,54.63
2023-01-19T11:32:49.369Z,54.57
2023-01-19T11:35:41.434Z,53.17
2023-01-19T11:38:23.163Z,53.40
2023-01-19T11:40:58.167Z,53.57
2023-01-19T11:43:39.792Z,52.87
2023-01-19T11:46:15.354Z,53.00
2023-01-19T11:49:05.166Z,54.20
2023-01-19T11:51:51.390Z,53.83
2023-01-19T11:54:28.032Z,53.17
2023-01-19T11:56:59.203Z,52.23
2023-01-19T11:59:26.506Z,53.27
2023-01-19T12:01:58.531Z,52.50
2023-01-19T12:04:35.480Z,52.37
2023-01-19T12:07:10.618Z,52.77
2023-01-19T12:09:47.782Z,53.03
2023-01-19T12:12:30.361Z,52.30
2023-01-19T12:15:42.421Z,53.00
2023-01-19T12:18:21.396Z,52.20
2023-01-19T12:20:53.794Z,52.77
2023-01-19T12:23:56.073Z,54.37
2023-01-19T12:26:33.556Z,53.83
2023-01-19T12:29:10.889Z,54.53
2023-01-19T12:31:40.580Z,54.97
2023-01-19T12:34:31.030Z,54.10
2023-01-19T12:37:07.052Z,54.40
2023-01-19T12:39:35.483Z,54.10
2023-01-19T12:42:15.136Z,53.93
2023-01-19T12:44:47.046Z,54.10
2023-01-19T12:47:14.080Z,53.63
2023-01-19T12:49:44.599Z,54.00
2023-01-19T12:52:39.316Z,53.37
2023-01-19T12:55:17.693Z,54.43
2023-01-19T12:58:21.904Z,58.53
2023-01-19T13:00:51.921Z,56.73
2023-01-19T13:03:18.951Z,55.33
2023-01-19T13:05:54.722Z,55.80
2023-01-19T13:08:55.989Z,55.43
2023-01-19T13:11:26.267Z,56.80
2023-01-19T13:14:00.428Z,56.40
2023-01-19T13:16:27.714Z,55.33
2023-01-19T13:19:07.231Z,54.80
2023-01-19T13:21:45.998Z,54.07
2023-01-19T13:24:16.578Z,55.03
2023-01-19T13:26:49.788Z,55.00
2023-01-19T13:29:35.814Z,56.13
2023-01-19T13:32:13.745Z,56.40
2023-01-19T13:34:46.176Z,54.57
2023-01-19T13:37:46.033Z,56.17
2023-01-19T13:40:21.995Z,55.53
2023-01-19T13:42:51.760Z,55.97
2023-01-19T13:45:29.083Z,55.90
2023-01-19T13:48:00.144Z,56.27
2023-01-19T13:50:33.966Z,56.37
2023-01-19T13:53:01.619Z,57.03
2023-01-19T13:55:31.340Z,58.37
2023-01-19T13:57:58.711Z,57.47
2023-01-19T14:00:32.905Z,57.67
2023-01-19T14:03:03.162Z,58.07
2023-01-19T14:05:39.153Z,57.07
2023-01-19T14:08:11.080Z,58.43
2023-01-19T14:10:54.378Z,57.83
2023-01-19T14:13:29.554Z,56.93
2023-01-19T14:16:05.561Z,56.97
2023-01-19T14:18:35.413Z,58.27
2023-01-19T14:21:11.826Z,57.47
2023-01-19T14:23:51.495Z,58.73
2023-01-19T14:26:54.797Z,57.03
2023-01-19T14:29:23.510Z,58.40
2023-01-19T14:32:01.582Z,59.30
2023-01-19T14:34:41.722Z,56.27
2023-01-19T14:37:33.425Z,58.30
2023-01-19T14:40:12.888Z,56.73
2023-01-19T14:42:49.213Z,57.30
2023-01-19T14:45:18.279Z,56.50
2023-01-19T14:47:53.210Z,56.23
2023-01-19T14:50:42.825Z,57.77
2023-01-19T14:53:25.736Z,57.10
2023-01-19T14:55:57.173Z,58.43
2023-01-19T14:58:27.064Z,58.27
2023-01-19T15:00:55.932Z,56.10
2023-01-19T15:03:31.986Z,59.33
2023-01-19T15:06:20.886Z,55.93
2023-01-19T15:08:50.232Z,58.63
2023-01-19T15:11:34.765Z,55.47
2023-01-19T15:14:02.788Z,54.93
2023-01-19T15:16:33.287Z,55.17
2023-01-19T15:19:00.809Z,56.57
2023-01-19T15:21:28.249Z,54.97
2023-01-19T15:23:55.883Z,54.60
2023-01-19T15:26:25.742Z,53.90
2023-01-19T15:28:53.147Z,53.47
2023-01-19T15:31:23.516Z,73.60
2023-01-19T15:33:50.684Z,55.73
2023-01-19T15:36:21.561Z,54.50
2023-01-19T15:38:51.897Z,55.47
2023-01-19T15:41:23.204Z,53.97
2023-01-19T15:43:51.289Z,54.67
2023-01-19T15:46:23.484Z,54.83
2023-01-19T15:48:51.329Z,54.50
2023-01-19T15:51:22.297Z,54.63
2023-01-19T15:53:50.111Z,55.87
2023-01-19T15:56:21.900Z,56.33
2023-01-19T15:58:48.976Z,57.73
2023-01-19T16:01:19.560Z,58.47
2023-01-19T16:03:46.824Z,58.93
2023-01-19T16:06:16.400Z,58.47
2023-01-19T16:08:43.973Z,58.83
2023-01-19T16:11:14.371Z,57.53
2023-01-19T16:13:46.266Z,57.63
2023-01-19T16:16:20.010Z,56.20
2023-01-19T16:18:47.519Z,59.10
2023-01-19T16:21:29.678Z,57.50
2023-01-19T16:23:56.764Z,58.40
2023-01-19T16:26:35.231Z,56.60
2023-01-19T16:29:09.888Z,57.53
2023-01-19T16:31:42.615Z,55.53
2023-01-19T16:34:10.146Z,55.80
2023-01-19T16:36:40.534Z,55.53
2023-01-19T16:39:12.154Z,56.00
2023-01-19T16:41:40.033Z,56.47
2023-01-19T16:44:08.231Z,57.90
2023-01-19T16:46:39.041Z,55.70
2023-01-19T16:49:12.082Z,55.43
2023-01-19T16:51:41.048Z,54.97
2023-01-19T16:54:11.435Z,54.53
2023-01-19T16:56:38.466Z,55.03
2023-01-19T16:59:05.487Z,54.83
2023-01-19T17:01:33.466Z,62.93
2023-01-19T17:04:00.533Z,53.63
2023-01-19T17:06:28.798Z,54.20
2023-01-19T17:08:55.935Z,53.63
2023-01-19T17:11:29.403Z,54.30
2023-01-19T17:14:00.272Z,54.77
2023-01-19T17:16:29.788Z,52.77
2023-01-19T17:18:58.940Z,53.33
2023-01-19T17:21:27.338Z,53.70
2023-01-19T17:23:55.941Z,53.13
2023-01-19T17:26:28.471Z,53.50
2023-01-19T17:29:05.520Z,54.30
2023-01-19T17:31:33.706Z,54.77
2023-01-19T17:34:01.901Z,54.83
2023-01-19T17:36:31.401Z,55.50
2023-01-19T17:39:06.375Z,54.40
2023-01-19T17:41:35.381Z,54.57
2023-01-19T17:44:04.821Z,53.47
2023-01-19T17:46:35.878Z,54.73
2023-01-19T17:49:05.467Z,54.17
2023-01-19T17:51:32.927Z,54.77
2023-01-19T17:54:00.247Z,59.73
2023-01-19T17:56:32.330Z,56.00
2023-01-19T17:58:59.785Z,57.33
2023-01-19T18:01:30.346Z,55.63
2023-01-19T18:03:58.584Z,55.30
2023-01-19T18:06:26.145Z,74.23
2023-01-19T18:08:54.117Z,67.33
2023-01-19T18:11:22.214Z,64.47
2023-01-19T18:13:50.879Z,54.33
2023-01-19T18:16:25.542Z,54.83
2023-01-19T18:18:53.804Z,54.73
2023-01-19T18:21:22.746Z,55.73
2023-01-19T18:23:50.978Z,56.57
2023-01-19T18:26:22.615Z,54.47
2023-01-19T18:28:50.302Z,55.10
2023-01-19T18:31:19.253Z,54.47
2023-01-19T18:33:48.242Z,54.10
2023-01-19T18:36:16.315Z,54.27
2023-01-19T18:38:45.000Z,54.10
2023-01-19T18:41:15.891Z,53.77
2023-01-19T18:43:43.511Z,54.93
2023-01-19T18:46:11.252Z,54.97
2023-01-19T18:48:39.067Z,53.90
2023-01-19T18:51:12.867Z,54.20
2023-01-19T18:53:40.343Z,53.93
2023-01-19T18:56:08.065Z,52.80
2023-01-19T18:58:38.170Z,53.83
2023-01-19T19:01:17.608Z,53.10
2023-01-19T19:03:45.156Z,53.30
2023-01-19T19:06:12.252Z,53.47
2023-01-19T19:08:39.903Z,53.37
2023-01-19T19:11:08.404Z,53.67
2023-01-19T19:13:36.608Z,52.93
2023-01-19T19:16:09.043Z,53.67
2023-01-19T19:18:38.243Z,87.07
2023-01-19T19:21:12.020Z,54.03
2023-01-19T19:23:39.074Z,54.47
2023-01-19T19:26:10.279Z,56.03
2023-01-19T19:28:39.693Z,57.30
2023-01-19T19:31:14.579Z,55.90
2023-01-19T19:33:42.638Z,55.17
2023-01-19T19:36:12.580Z,54.80
2023-01-19T19:38:44.418Z,54.60
2023-01-19T19:41:18.955Z,55.43
2023-01-19T19:43:46.038Z,54.03
2023-01-19T19:46:15.547Z,54.70
2023-01-19T19:48:42.841Z,55.80
2023-01-19T19:51:19.086Z,55.20
2023-01-19T19:53:49.036Z,55.97
2023-01-19T19:56:21.252Z,57.77
2023-01-19T19:58:50.020Z,58.17
2023-01-19T20:01:21.519Z,59.00
2023-01-19T20:03:49.308Z,59.90
2023-01-19T20:06:22.469Z,58.77
2023-01-19T20:08:52.175Z,59.70
2023-01-19T20:11:23.452Z,58.37
2023-01-19T20:13:50.829Z,59.37
2023-01-19T20:16:22.220Z,60.00
2023-01-19T20:18:53.894Z,59.37
2023-01-19T20:21:25.142Z,59.47
2023-01-19T20:23:53.109Z,61.43
2023-01-19T20:26:25.403Z,59.50
2023-01-19T20:28:53.946Z,61.03
2023-01-19T20:31:28.335Z,59.37
2023-01-19T20:33:59.586Z,60.57
2023-01-19T20:36:27.062Z,60.27
2023-01-19T20:38:55.559Z,60.33
2023-01-19T20:41:23.690Z,59.67
2023-01-19T20:43:50.950Z,60.50
2023-01-19T20:46:19.067Z,60.60
2023-01-19T20:48:50.830Z,87.33
2023-01-19T20:51:18.904Z,66.83
2023-01-19T20:53:47.438Z,71.27
2023-01-19T20:56:15.704Z,93.57
2023-01-19T20:58:42.823Z,75.90
2023-01-19T21:01:24.789Z,79.33
2023-01-19T21:03:52.747Z,73.67
2023-01-19T21:06:21.566Z,72.47
2023-01-19T21:08:50.077Z,74.80
2023-01-19T21:11:20.788Z,62.00
2023-01-19T21:13:50.608Z,60.70
2023-01-19T21:16:17.915Z,58.27
2023-01-19T21:18:45.385Z,58.67
2023-01-19T21:21:28.903Z,62.67
2023-01-19T21:23:58.101Z,63.40
2023-01-19T21:26:25.266Z,64.10
2023-01-19T21:28:52.502Z,61.67
2023-01-19T21:31:21.363Z,60.77
2023-01-19T21:33:49.326Z,63.10
2023-01-19T21:36:16.370Z,62.00
2023-01-19T21:38:43.393Z,62.87
2023-01-19T21:41:12.769Z,59.70
2023-01-19T21:43:42.686Z,59.17
2023-01-19T21:46:17.893Z,59.50
2023-01-19T21:48:45.961Z,57.97
2023-01-19T21:51:14.777Z,58.97
2023-01-19T21:53:42.429Z,59.37
2023-01-19T21:56:11.107Z,60.20
2023-01-19T21:58:38.880Z,60.20
2023-01-19T22:01:13.940Z,58.33
2023-01-19T22:03:42.326Z,59.33
2023-01-19T22:06:13.252Z,58.80
2023-01-19T22:08:40.759Z,60.60
2023-01-19T22:11:10.935Z,61.43
2023-01-19T22:13:39.284Z,62.97
2023-01-19T22:16:15.988Z,64.07
2023-01-19T22:18:45.856Z,59.90
2023-01-19T22:21:18.828Z,59.70
2023-01-19T22:23:49.997Z,58.77
2023-01-19T22:26:17.303Z,58.20
2023-01-19T22:28:45.101Z,59.60
2023-01-19T22:31:17.738Z,59.73
2023-01-19T22:33:45.513Z,59.23
2023-01-19T22:36:12.786Z,59.17
2023-01-19T22:38:40.349Z,59.87
2023-01-19T22:41:18.779Z,60.73
2023-01-19T22:43:46.591Z,59.77
2023-01-19T22:46:17.256Z,60.47
2023-01-19T22:48:44.312Z,60.97
2023-01-19T22:51:11.391Z,61.87
2023-01-19T22:53:38.814Z,62.27
2023-01-19T22:56:24.656Z,61.03
2023-01-19T22:58:52.786Z,61.67
2023-01-19T23:01:23.455Z,62.23
2023-01-19T23:03:51.220Z,62.90
2023-01-19T23:06:21.969Z,62.67
2023-01-19T23:08:49.166Z,66.27
2023-01-19T23:11:23.630Z,68.90
2023-01-19T23:13:51.580Z,73.43
2023-01-19T23:16:19.555Z,66.87
2023-01-19T23:18:47.396Z,64.07
2023-01-19T23:21:21.005Z,61.70
2023-01-19T23:23:48.270Z,65.40
2023-01-19T23:26:19.970Z,63.50
2023-01-19T23:28:47.546Z,62.20
2023-01-19T23:31:23.958Z,63.80
2023-01-19T23:33:54.886Z,68.83
2023-01-19T23:36:24.674Z,67.07
2023-01-19T23:38:55.330Z,74.20
2023-01-19T23:41:24.208Z,84.43
2023-01-19T23:43:52.234Z,85.73
2023-01-19T23:46:20.516Z,79.53
2023-01-19T23:48:47.819Z,66.40
2023-01-19T23:51:18.502Z,66.10
2023-01-19T23:53:46.343Z,65.23
2023-01-19T23:56:25.018Z,63.90
2023-01-19T23:58:58.630Z,65.90
